Time;durP1;ratioP1;P1;durP2;ratioP2;P2;SDS_P1;SDS_P2;PMS_P1;PMS_P2;Temp;Humidity;BMP_temperature;BMP_pressure;BME280_temperature;BME280_humidity;BME280_pressure;Samples;Min_cycle;Max_cycle;Signal;HPM_P1;HPM_P2
2023/01/22 00:01:11;;;;;;;9.02;4.03;;;;;;;3.35;74.13;101326.28;10313635;28;20078;-58
2023/01/22 00:06:13;;;;;;;9.73;4.40;;;;;;;3.36;73.87;101326.19;10317876;28;20572;-57
2023/01/22 00:11:16;;;;;;;8.65;4.25;;;;;;;3.42;73.75;101319.63;10312101;28;20058;-57
2023/01/22 00:16:19;;;;;;;8.93;4.03;;;;;;;3.43;74.13;101318.66;10311234;28;20050;-59
2023/01/22 00:21:20;;;;;;;8.25;3.90;;;;;;;3.42;74.28;101316.13;10314574;28;20050;-60
2023/01/22 00:26:22;;;;;;;7.45;3.90;;;;;;;3.44;74.33;101311.53;10319897;28;20054;-58
2023/01/22 00:31:23;;;;;;;10.65;4.05;;;;;;;3.38;74.64;101308.34;10314595;28;20050;-58
2023/01/22 00:36:25;;;;;;;8.90;3.42;;;;;;;3.36;74.71;101304.09;10314479;28;20054;-57
2023/01/22 00:41:26;;;;;;;7.97;3.47;;;;;;;3.36;74.30;101301.44;10313273;28;20078;-60
2023/01/22 00:46:27;;;;;;;9.55;3.85;;;;;;;3.34;74.76;101295.38;10311137;28;20065;-60
2023/01/22 00:51:29;;;;;;;8.82;4.35;;;;;;;3.34;74.45;101292.72;10308280;28;20066;-59
2023/01/22 00:56:31;;;;;;;8.70;4.57;;;;;;;3.37;74.72;101296.00;10308756;28;20125;-58
2023/01/22 01:01:32;;;;;;;9.50;4.22;;;;;;;3.35;74.64;101289.09;10313794;28;20162;-60
2023/01/22 01:06:34;;;;;;;7.00;3.95;;;;;;;3.37;74.48;101296.00;10315408;28;20113;-59
2023/01/22 01:11:36;;;;;;;5.60;2.97;;;;;;;3.38;74.82;101289.75;10314289;28;20057;-60
2023/01/22 01:16:37;;;;;;;10.77;4.15;;;;;;;3.36;74.76;101296.97;10312909;28;20592;-59
2023/01/22 01:21:38;;;;;;;8.07;4.40;;;;;;;3.41;74.36;101296.63;10303583;28;20054;-60
2023/01/22 01:26:40;;;;;;;7.32;3.63;;;;;;;3.41;74.50;101299.28;10319864;28;20058;-57
2023/01/22 01:31:42;;;;;;;5.85;3.38;;;;;;;3.36;74.61;101307.59;10320440;28;20050;-58
2023/01/22 01:36:43;;;;;;;7.13;3.45;;;;;;;3.42;74.23;101301.00;10317686;28;20101;-58
2023/01/22 01:41:50;;;;;;;6.55;3.67;;;;;;;3.45;74.32;101294.63;10322891;28;20058;-58
2023/01/22 01:46:54;;;;;;;6.88;3.42;;;;;;;3.47;74.02;101292.72;10319672;28;20520;-59
2023/01/22 01:52:01;;;;;;;5.32;2.72;;;;;;;3.50;74.60;101288.03;10322118;28;20055;-58
2023/01/22 01:57:08;;;;;;;5.83;3.37;;;;;;;3.49;74.14;101296.09;10324303;28;20051;-58
2023/01/22 02:02:10;;;;;;;5.20;2.40;;;;;;;3.54;74.24;101299.31;10316289;28;20081;-58
2023/01/22 02:07:11;;;;;;;5.07;2.53;;;;;;;3.54;74.42;101291.34;10319648;28;20061;-59
2023/01/22 02:12:13;;;;;;;4.85;2.22;;;;;;;3.51;74.10;101300.34;10312545;28;20050;-61
2023/01/22 02:17:18;;;;;;;4.13;2.40;;;;;;;3.50;74.36;101287.19;10322173;28;20061;-60
2023/01/22 02:22:24;;;;;;;4.30;1.90;;;;;;;3.56;73.86;101294.75;10322253;28;20100;-59
2023/01/22 02:27:25;;;;;;;3.95;2.88;;;;;;;3.55;74.08;101298.34;10322723;28;20065;-58
2023/01/22 02:32:27;;;;;;;4.32;1.75;;;;;;;3.57;74.01;101297.28;10316203;28;20058;-60
2023/01/22 02:37:29;;;;;;;5.15;2.22;;;;;;;3.64;73.60;101300.38;10320913;28;20055;-60
2023/01/22 02:42:30;;;;;;;4.38;1.45;;;;;;;3.64;73.39;101304.84;10321689;28;20054;-59
2023/01/22 02:47:34;;;;;;;5.25;2.42;;;;;;;3.62;73.65;101301.44;10318141;28;20059;-58
2023/01/22 02:52:36;;;;;;;7.10;2.15;;;;;;;3.63;73.68;101311.09;10318275;28;20055;-59
2023/01/22 02:57:37;;;;;;;3.17;1.95;;;;;;;3.59;73.68;101302.47;10313989;28;20051;-58
2023/01/22 03:02:38;;;;;;;5.20;2.15;;;;;;;3.59;73.91;101302.47;10314650;28;20058;-58
2023/01/22 03:07:43;;;;;;;3.42;1.90;;;;;;;3.58;73.91;101304.28;10320028;28;20055;-58
2023/01/22 03:23:27;;;;;;;3.55;2.00;;;;;;;3.59;73.91;101302.47;10314520;28;20055;-59
2023/01/22 03:28:28;;;;;;;2.47;1.63;;;;;;;3.64;73.50;101297.72;10322163;28;20047;-59
2023/01/22 03:33:30;;;;;;;3.15;1.75;;;;;;;3.57;73.72;101301.75;10317707;28;20057;-60
2023/01/22 03:38:32;;;;;;;2.35;1.63;;;;;;;3.59;73.62;101289.19;10318832;28;20058;-60
2023/01/22 03:43:34;;;;;;;3.03;1.88;;;;;;;3.65;73.74;101301.19;10314889;28;20058;-61
2023/01/22 03:48:36;;;;;;;2.75;1.60;;;;;;;3.66;73.60;101302.91;10318062;28;20627;-59
2023/01/22 03:53:38;;;;;;;2.75;1.60;;;;;;;3.66;73.47;101311.75;10314290;28;20078;-58
2023/01/22 03:58:39;;;;;;;3.45;1.40;;;;;;;3.64;73.63;101300.38;10317692;28;20101;-59
2023/01/22 04:03:41;;;;;;;3.20;1.88;;;;;;;3.68;73.11;101303.66;10319640;28;20086;-60
2023/01/22 04:08:44;;;;;;;2.42;1.65;;;;;;;3.69;73.41;101303.56;10316766;28;20058;-59
2023/01/22 04:13:46;;;;;;;2.58;1.30;;;;;;;3.69;73.28;101306.22;10313599;28;20666;-59
2023/01/22 04:18:47;;;;;;;2.25;1.30;;;;;;;3.71;73.04;101306.09;10317631;28;20054;-61
2023/01/22 04:23:49;;;;;;;2.92;1.60;;;;;;;3.73;73.10;101314.81;10316050;28;20057;-58
2023/01/22 04:28:50;;;;;;;2.95;1.50;;;;;;;3.72;73.30;101321.09;10314341;28;20043;-60
2023/01/22 04:33:51;;;;;;;1.63;1.38;;;;;;;3.73;73.52;101326.31;10314879;28;20501;-58
2023/01/22 04:38:53;;;;;;;2.83;1.40;;;;;;;3.78;73.13;101324.16;10314553;28;20043;-60
2023/01/22 04:43:54;;;;;;;2.88;1.58;;;;;;;3.81;72.85;101324.91;10316600;28;20081;-58
2023/01/22 04:48:55;;;;;;;2.55;1.63;;;;;;;3.79;73.06;101319.69;10309306;28;20047;-59
2023/01/22 04:53:57;;;;;;;3.28;1.33;;;;;;;3.80;73.37;101325.88;10310236;28;20061;-60
2023/01/22 04:58:59;;;;;;;2.05;1.45;;;;;;;3.81;72.92;101316.94;10320904;28;20046;-59
2023/01/22 05:04:01;;;;;;;1.92;1.20;;;;;;;3.80;73.19;101325.88;10321396;28;20113;-59
2023/01/22 05:09:02;;;;;;;3.92;1.40;;;;;;;3.82;72.75;101319.50;10317502;28;20127;-58
2023/01/22 05:14:04;;;;;;;2.95;1.50;;;;;;;3.86;72.84;101325.44;10321858;28;21093;-58
2023/01/22 05:19:05;;;;;;;3.03;1.02;;;;;;;3.89;73.09;101326.09;10325659;28;20057;-60
2023/01/22 05:24:08;;;;;;;2.22;1.17;;;;;;;3.94;73.00;101323.94;10325457;28;20117;-59
2023/01/22 05:29:09;;;;;;;3.15;1.63;;;;;;;3.93;72.69;101326.69;10319926;28;20050;-60
2023/01/22 05:34:10;;;;;;;1.80;1.17;;;;;;;3.90;72.86;101325.09;10319117;28;20055;-59
2023/01/22 05:39:13;;;;;;;2.08;1.35;;;;;;;3.90;73.00;101333.09;10321292;28;20522;-60
2023/01/22 05:44:14;;;;;;;2.58;1.58;;;;;;;3.96;72.71;101345.09;10322074;28;20066;-62
2023/01/22 05:49:15;;;;;;;3.35;2.15;;;;;;;3.92;73.01;101335.66;10322024;28;20560;-59
2023/01/22 05:54:17;;;;;;;2.88;1.38;;;;;;;3.94;72.63;101331.06;10325315;28;20055;-61
2023/01/22 05:59:18;;;;;;;3.58;0.77;;;;;;;3.98;72.60;101329.88;10321026;28;20054;-61
2023/01/22 06:04:19;;;;;;;2.85;1.70;;;;;;;3.99;72.62;101336.94;10325207;28;20086;-62
2023/01/22 06:09:21;;;;;;;1.35;1.05;;;;;;;3.99;72.76;101350.22;10326347;28;20047;-58
2023/01/22 06:14:22;;;;;;;1.98;1.58;;;;;;;3.98;72.77;101352.00;10328382;28;20050;-59
2023/01/22 06:19:24;;;;;;;3.42;1.92;;;;;;;4.03;72.55;101342.84;10329415;28;20055;-59
2023/01/22 06:24:25;;;;;;;1.75;1.10;;;;;;;4.05;72.59;101347.13;10329085;28;20087;-61
2023/01/22 06:29:26;;;;;;;2.78;1.88;;;;;;;4.10;72.47;101344.97;10325419;28;20051;-58
2023/01/22 06:34:28;;;;;;;2.50;1.83;;;;;;;4.13;72.43;101363.38;10311311;28;20054;-60
2023/01/22 06:39:29;;;;;;;2.15;1.42;;;;;;;4.10;72.50;101354.78;10322197;28;20070;-60
2023/01/22 06:44:30;;;;;;;3.75;1.60;;;;;;;4.11;72.64;101367.97;10323875;28;20053;-59
2023/01/22 06:49:32;;;;;;;1.67;1.25;;;;;;;4.08;72.54;101357.53;10314190;28;20050;-60
2023/01/22 06:54:33;;;;;;;2.88;1.52;;;;;;;4.11;72.39;101367.97;10301964;28;20061;-59
2023/01/22 06:59:34;;;;;;;2.85;1.52;;;;;;;4.13;72.45;101381.16;10307047;28;20409;-63
2023/01/22 07:04:37;;;;;;;2.67;1.85;;;;;;;4.12;72.42;101388.28;10316378;28;20063;-59
2023/01/22 07:09:38;;;;;;;3.13;1.63;;;;;;;4.03;72.70;101393.41;10317905;28;20054;-60
2023/01/22 07:20:22;;;;;;;2.13;1.30;;;;;;;4.24;72.43;101389.22;10639942;23;20054;-90
2023/01/22 07:25:25;;;;;;;2.33;1.50;;;;;;;4.24;72.37;101397.22;10298638;28;20078;-90
2023/01/22 07:30:27;;;;;;;2.60;1.52;;;;;;;4.25;72.55;101398.91;10307160;28;20062;-90
2023/01/22 07:35:29;;;;;;;3.33;1.58;;;;;;;4.26;72.31;101413.06;10318008;28;20050;-89
2023/01/22 07:40:31;;;;;;;2.00;1.30;;;;;;;4.34;72.04;101416.03;10313960;28;20057;-90
2023/01/22 07:50:50;;;;;;;2.25;1.20;;;;;;;4.32;72.39;101423.28;10500573;23;20084;-90
2023/01/22 07:55:53;;;;;;;1.60;0.90;;;;;;;4.31;72.08;101432.25;10310335;28;20073;-89
2023/01/22 08:00:55;;;;;;;1.67;1.40;;;;;;;4.29;72.43;101439.47;10295360;28;20057;-88
2023/01/22 08:05:56;;;;;;;2.88;1.80;;;;;;;4.31;72.33;101430.41;10293288;28;20063;-88
2023/01/22 08:10:58;;;;;;;2.80;1.92;;;;;;;4.35;72.40;101444.38;10299485;28;20488;-88
2023/01/22 08:16:00;;;;;;;2.55;1.75;;;;;;;4.39;72.23;101445.84;10291958;28;20047;-91
2023/01/22 08:21:03;;;;;;;1.85;1.33;;;;;;;4.38;72.31;101452.13;10293430;28;20042;-90
2023/01/22 08:26:04;;;;;;;3.45;2.50;;;;;;;4.43;72.07;101457.13;10291105;28;20070;-91
2023/01/22 08:31:06;;;;;;;3.85;2.05;;;;;;;4.50;71.98;101463.72;10298790;28;20111;-90
2023/01/22 08:36:16;;;;;;;4.38;1.80;;;;;;;4.52;72.05;101462.66;10323121;28;20030;-90
2023/01/22 08:41:27;;;;;;;1.67;1.48;;;;;;;4.56;71.87;101463.28;10293215;28;20054;-92
2023/01/22 08:46:38;;;;;;;2.17;1.58;;;;;;;4.52;72.34;101468.00;10303271;28;20043;-89
2023/01/22 08:51:53;;;;;;;2.15;1.50;;;;;;;4.62;71.84;101473.50;10294838;28;20038;-92
2023/01/22 08:57:08;;;;;;;2.85;1.33;;;;;;;4.68;71.96;101475.72;10309063;28;20059;-90
2023/01/22 09:02:15;;;;;;;2.38;1.67;;;;;;;4.76;71.32;101475.19;10304471;28;20121;-92
2023/01/22 09:07:37;;;;;;;1.98;1.35;;;;;;;4.78;71.84;101470.59;10283628;28;20039;-91
2023/01/22 09:12:43;;;;;;;3.13;1.75;;;;;;;4.76;71.61;101484.00;10273499;28;20594;-90
2023/01/22 09:17:45;;;;;;;3.20;1.60;;;;;;;4.82;71.49;101490.72;10290126;28;20054;-90
2023/01/22 09:22:50;;;;;;;2.00;1.38;;;;;;;4.93;71.40;101493.44;10282879;28;20047;-90
2023/01/22 09:28:03;;;;;;;2.37;1.40;;;;;;;4.97;72.14;101491.41;10286527;28;20051;-89
2023/01/22 09:33:20;;;;;;;1.83;1.02;;;;;;;5.03;71.84;101503.44;10294769;28;20039;-91
2023/01/22 09:38:23;;;;;;;2.17;1.55;;;;;;;5.08;71.64;101496.81;10262307;28;21241;-90
2023/01/22 09:43:58;;;;;;;1.60;1.27;;;;;;;5.16;71.74;101497.09;10297265;28;20078;-89
2023/01/22 10:00:55;;;;;;;2.33;1.60;;;;;;;5.15;71.79;101497.22;10365158;23;20082;-93
2023/01/22 10:06:20;;;;;;;2.20;1.30;;;;;;;5.18;70.79;101507.66;10327008;28;20034;-92
2023/01/22 10:52:00;;;;;;;7.57;2.67;;;;;;;5.40;70.95;101509.59;4356432;23;20362;-86
2023/01/22 11:03:36;;;;;;;6.32;2.15;;;;;;;5.33;71.37;101506.53;10596112;23;20065;-91
2023/01/22 11:31:33;;;;;;;2.65;1.30;;;;;;;5.64;71.40;101512.22;2610662;23;20057;-91
2023/01/22 11:37:09;;;;;;;1.42;1.00;;;;;;;5.67;70.92;101516.50;10472369;23;20156;-91
2023/01/22 13:26:11;;;;;;;1.52;1.20;;;;;;;5.94;70.02;101511.75;2236011;23;20399;-87
2023/01/22 13:47:51;;;;;;;1.25;1.13;;;;;;;5.79;70.55;101525.41;10292280;23;20046;-87
2023/01/22 13:52:58;;;;;;;1.98;1.15;;;;;;;5.80;69.63;101529.75;10252932;28;20055;-85
2023/01/22 14:09:17;;;;;;;1.50;1.10;;;;;;;5.69;69.94;101531.44;10461501;23;20115;-88
2023/01/22 14:14:19;;;;;;;1.20;0.93;;;;;;;5.68;70.07;101532.38;10254536;28;20059;-88
2023/01/22 14:19:21;;;;;;;1.80;1.55;;;;;;;5.64;70.26;101536.25;10255942;28;20051;-88
2023/01/22 14:30:32;;;;;;;2.78;1.40;;;;;;;5.73;69.90;101538.22;2300853;23;20317;-89
2023/01/22 14:35:35;;;;;;;2.10;1.67;;;;;;;5.63;70.19;101544.34;10250247;28;20039;-89
2023/01/22 14:40:40;;;;;;;2.47;1.40;;;;;;;5.65;70.10;101543.28;10259423;28;20106;-89
2023/01/22 14:45:44;;;;;;;5.03;3.00;;;;;;;5.70;70.14;101549.13;10274523;28;20042;-93
2023/01/22 14:50:49;;;;;;;7.95;3.50;;;;;;;5.57;69.71;101543.03;10633965;23;20039;-90
2023/01/22 14:55:51;;;;;;;5.43;3.30;;;;;;;5.68;69.63;101560.88;10268531;28;20111;-89
2023/01/22 15:06:13;;;;;;;2.47;1.73;;;;;;;5.65;70.07;101561.13;10536702;23;20058;-89
2023/01/22 15:11:22;;;;;;;3.90;2.25;;;;;;;5.60;70.37;101556.09;10246091;28;20061;-90
2023/01/22 15:16:27;;;;;;;2.95;1.88;;;;;;;5.59;70.06;101556.22;10237304;28;20051;-90
2023/01/22 15:21:29;;;;;;;4.13;1.50;;;;;;;5.50;69.92;101571.09;10244186;28;20055;-91
2023/01/22 15:26:35;;;;;;;4.18;1.73;;;;;;;5.52;69.75;101571.84;10223803;28;20080;-90
2023/01/22 15:44:01;;;;;;;2.30;1.63;;;;;;;5.39;70.10;101600.34;10268460;28;20043;-91
2023/01/22 15:49:17;;;;;;;4.50;2.42;;;;;;;5.39;70.00;101600.34;10172910;29;20044;-90
2023/01/22 15:54:40;;;;;;;4.43;2.40;;;;;;;5.38;70.77;101598.66;10211381;28;20051;-90
2023/01/22 16:00:04;;;;;;;4.03;2.45;;;;;;;5.32;69.84;101603.47;10208713;28;20055;-91
2023/01/22 16:05:08;;;;;;;4.32;2.00;;;;;;;5.33;70.10;101607.84;10211101;29;20051;-91
2023/01/22 16:10:10;;;;;;;3.97;2.80;;;;;;;5.23;70.82;101611.28;10217462;28;20039;-89
2023/01/22 16:15:17;;;;;;;3.42;2.00;;;;;;;5.19;70.22;101617.78;10215539;29;20035;-90
2023/01/22 16:30:53;;;;;;;5.67;3.33;;;;;;;5.10;70.88;101633.47;10300326;23;20130;-91
2023/01/22 16:36:22;;;;;;;5.10;3.13;;;;;;;5.06;70.93;101631.16;10325295;23;20071;-60
2023/01/22 16:41:26;;;;;;;4.22;3.05;;;;;;;5.04;70.75;101644.56;10272151;28;20056;-63
2023/01/22 16:46:30;;;;;;;6.90;4.15;;;;;;;5.01;71.08;101644.78;10271007;28;20043;-59
2023/01/22 16:51:37;;;;;;;6.18;3.10;;;;;;;4.97;70.85;101644.13;10277366;28;20046;-60
2023/01/22 16:56:39;;;;;;;5.47;3.40;;;;;;;4.89;71.09;101638.50;10283267;28;20114;-59
2023/01/22 17:01:40;;;;;;;6.22;3.33;;;;;;;4.93;71.02;101653.31;10276042;28;20043;-59
2023/01/22 17:06:48;;;;;;;5.80;3.53;;;;;;;4.95;71.23;101653.19;10280143;28;20098;-63
2023/01/22 17:11:55;;;;;;;5.97;3.22;;;;;;;4.95;70.68;101655.88;10282404;28;20079;-62
2023/01/22 17:16:57;;;;;;;5.97;3.53;;;;;;;5.00;71.56;101664.41;10278831;28;20047;-60
2023/01/22 17:22:00;;;;;;;4.97;3.45;;;;;;;4.93;71.51;101669.28;10266325;28;20319;-59
2023/01/22 17:27:01;;;;;;;4.28;2.78;;;;;;;4.86;71.23;101667.16;10270029;28;20078;-61
2023/01/22 17:32:03;;;;;;;7.70;3.90;;;;;;;4.86;71.40;101667.16;10315166;23;20047;-60
2023/01/22 17:37:09;;;;;;;6.10;3.50;;;;;;;4.83;71.64;101673.56;10257668;28;20054;-61
2023/01/22 17:42:10;;;;;;;8.00;4.15;;;;;;;4.88;71.77;101675.91;10247181;28;20609;-58
2023/01/22 17:47:12;;;;;;;8.85;4.28;;;;;;;4.80;71.66;101676.44;10250267;28;20067;-59
2023/01/22 17:52:15;;;;;;;8.45;4.63;;;;;;;4.75;71.90;101686.56;10254094;28;20098;-58
2023/01/22 17:57:16;;;;;;;8.35;4.63;;;;;;;4.77;71.94;101695.28;10245569;28;20055;-60
2023/01/22 18:02:17;;;;;;;5.43;3.55;;;;;;;4.75;71.89;101700.72;10230120;28;20062;-60
2023/01/22 18:07:19;;;;;;;9.60;4.30;;;;;;;4.84;71.90;101699.25;10245573;28;20056;-60
2023/01/22 18:12:20;;;;;;;6.18;3.95;;;;;;;4.86;71.70;101705.31;10243710;28;20047;-59
2023/01/22 18:17:22;;;;;;;8.73;4.85;;;;;;;4.80;72.07;101707.53;10247897;28;20142;-61
2023/01/22 18:22:24;;;;;;;6.25;4.22;;;;;;;4.74;71.96;101711.50;10249661;29;21887;-58
2023/01/22 18:27:26;;;;;;;7.90;4.22;;;;;;;4.71;72.38;101714.34;10247718;28;20415;-59
2023/01/22 18:32:28;;;;;;;8.88;4.43;;;;;;;4.69;72.50;101713.59;10257377;28;20059;-60
2023/01/22 18:37:32;;;;;;;7.85;4.53;;;;;;;4.62;72.59;101722.97;10249564;28;20063;-59
2023/01/22 18:42:33;;;;;;;7.15;4.32;;;;;;;4.58;72.44;101727.63;10248755;28;20083;-59
2023/01/22 18:47:36;;;;;;;9.32;5.10;;;;;;;4.63;72.26;101730.00;10249134;28;20059;-58
2023/01/22 18:52:37;;;;;;;7.18;4.63;;;;;;;4.62;72.17;101726.50;10257263;28;20043;-62
2023/01/22 18:57:41;;;;;;;9.32;5.90;;;;;;;4.65;72.47;101726.28;10251971;28;20051;-60
2023/01/22 19:02:43;;;;;;;9.20;5.10;;;;;;;4.61;72.26;101731.91;10257387;28;20043;-62
2023/01/22 19:07:44;;;;;;;10.10;5.38;;;;;;;4.59;72.94;101732.00;10255965;28;20490;-61
2023/01/22 19:12:45;;;;;;;10.38;5.40;;;;;;;4.65;72.57;101736.94;10250342;28;20071;-63
2023/01/22 19:17:47;;;;;;;10.27;5.13;;;;;;;4.63;72.52;101751.31;10245802;28;20055;-60
2023/01/22 19:22:48;;;;;;;10.10;4.95;;;;;;;4.64;72.50;101745.00;10253333;28;20185;-59
2023/01/22 19:27:49;;;;;;;7.90;4.43;;;;;;;4.64;72.79;101753.00;10249418;28;20149;-60
2023/01/22 19:32:52;;;;;;;8.38;4.70;;;;;;;4.65;72.79;101755.56;10249729;28;20051;-61
2023/01/22 19:37:53;;;;;;;12.50;4.22;;;;;;;4.73;72.79;101763.06;10247378;28;20554;-60
2023/01/22 19:42:55;;;;;;;8.00;4.88;;;;;;;4.67;72.87;101766.97;10248637;28;20047;-59
2023/01/22 19:47:58;;;;;;;8.27;4.97;;;;;;;4.70;72.36;101768.56;10244031;28;20058;-60
2023/01/22 19:52:59;;;;;;;8.02;4.50;;;;;;;4.73;72.88;101771.03;10238556;28;20044;-59
2023/01/22 19:58:00;;;;;;;9.45;5.25;;;;;;;4.69;72.59;101772.19;10245882;28;20079;-59
2023/01/22 20:03:05;;;;;;;8.02;4.97;;;;;;;4.67;72.73;101774.97;10249080;28;20087;-59
2023/01/22 20:08:07;;;;;;;13.40;6.63;;;;;;;4.70;72.73;101782.75;10239003;28;20373;-60
2023/01/22 20:13:10;;;;;;;9.68;5.25;;;;;;;4.67;72.95;101785.63;10240800;28;20102;-61
2023/01/22 20:18:11;;;;;;;10.32;5.53;;;;;;;4.69;72.55;101790.84;10240834;28;20062;-60
2023/01/22 20:23:12;;;;;;;10.00;5.25;;;;;;;4.73;72.26;101801.19;10247111;28;20066;-61
2023/01/22 20:28:15;;;;;;;10.07;5.15;;;;;;;4.76;72.50;101802.81;10244005;28;20055;-60
2023/01/22 20:33:16;;;;;;;10.27;5.65;;;;;;;4.80;72.47;101800.78;10241970;28;20055;-61
2023/01/22 20:38:17;;;;;;;9.85;5.35;;;;;;;4.81;72.52;101792.69;10258750;28;20061;-61
2023/01/22 20:43:19;;;;;;;12.55;5.38;;;;;;;4.79;72.30;101794.59;10260821;28;20567;-61
2023/01/22 20:48:21;;;;;;;10.20;4.90;;;;;;;4.76;72.22;101802.81;10258488;28;20055;-61
2023/01/22 20:53:23;;;;;;;9.85;4.75;;;;;;;4.73;72.30;101795.00;10254217;28;20063;-63
2023/01/22 20:58:25;;;;;;;8.55;4.40;;;;;;;4.75;72.54;101803.75;10246209;28;20538;-60
2023/01/22 21:03:26;;;;;;;7.82;4.57;;;;;;;4.73;72.38;101806.50;10250857;28;20843;-59
2023/01/22 21:08:27;;;;;;;6.90;3.97;;;;;;;4.78;72.86;101800.91;10252638;28;20502;-60
2023/01/22 21:13:29;;;;;;;8.05;4.45;;;;;;;4.70;72.81;101813.84;10251634;28;20051;-63
2023/01/22 21:18:30;;;;;;;6.05;4.13;;;;;;;4.67;72.84;101809.59;10246270;28;20059;-60
2023/01/22 21:23:32;;;;;;;7.13;4.25;;;;;;;4.68;72.60;101819.31;10252131;28;20051;-60
2023/01/22 21:28:34;;;;;;;6.72;4.00;;;;;;;4.66;72.83;101805.22;10250082;28;20142;-60
2023/01/22 21:33:37;;;;;;;8.82;4.82;;;;;;;4.64;72.36;101808.94;10244896;28;20499;-62
2023/01/22 21:38:38;;;;;;;8.00;4.25;;;;;;;4.52;72.91;101797.28;10250145;28;20043;-60
2023/01/22 21:49:15;;;;;;;8.27;4.70;;;;;;;4.60;72.43;101799.44;10260713;28;20110;-61
2023/01/22 21:54:20;;;;;;;8.45;5.38;;;;;;;4.56;72.81;101801.44;10259502;28;20057;-60
2023/01/22 21:59:21;;;;;;;8.27;4.03;;;;;;;4.56;72.63;101812.97;10253359;28;20051;-62
2023/01/22 22:04:25;;;;;;;8.52;4.20;;;;;;;4.57;72.20;101817.31;10255224;28;20043;-62
2023/01/22 22:09:27;;;;;;;6.97;3.45;;;;;;;4.61;72.48;101811.81;10255892;28;20063;-60
2023/01/22 22:14:29;;;;;;;9.88;4.90;;;;;;;4.62;72.19;101825.03;10255960;28;20052;-62
2023/01/22 22:19:30;;;;;;;10.43;5.47;;;;;;;4.59;72.27;101816.38;10260380;28;20062;-60
2023/01/22 22:24:32;;;;;;;8.40;4.47;;;;;;;4.49;72.84;101819.63;10255215;28;20044;-59
2023/01/22 22:29:33;;;;;;;9.52;5.03;;;;;;;4.48;72.44;101823.28;10261779;28;20044;-61
2023/01/22 22:34:34;;;;;;;8.15;4.90;;;;;;;4.43;72.78;101822.72;10256114;28;20047;-61
2023/01/22 22:39:37;;;;;;;8.50;5.05;;;;;;;4.41;73.16;101829.09;10257725;28;20078;-61
2023/01/22 22:44:39;;;;;;;10.52;5.05;;;;;;;4.50;72.93;101834.69;10243306;28;20070;-60
2023/01/22 22:49:40;;;;;;;10.98;5.45;;;;;;;4.46;72.81;101838.47;10252488;28;20375;-62
2023/01/22 22:54:42;;;;;;;10.63;5.35;;;;;;;4.46;72.58;101834.97;10254989;28;20051;-62
2023/01/22 22:59:43;;;;;;;8.93;5.30;;;;;;;4.40;72.87;101830.88;10253679;28;20051;-62
2023/01/22 23:04:44;;;;;;;11.93;6.30;;;;;;;4.43;73.02;101844.00;10254801;28;20050;-62
2023/01/22 23:09:46;;;;;;;11.85;6.20;;;;;;;4.53;72.97;101845.09;10254372;28;20055;-60
2023/01/22 23:14:47;;;;;;;11.75;5.55;;;;;;;4.51;72.75;101841.69;10255595;28;20106;-60
2023/01/22 23:19:49;;;;;;;9.45;5.03;;;;;;;4.52;72.64;101835.44;10250777;28;20067;-62
2023/01/22 23:24:50;;;;;;;8.82;4.88;;;;;;;4.46;73.15;101838.47;10249466;28;20051;-61
2023/01/22 23:29:54;;;;;;;9.10;4.63;;;;;;;4.46;72.87;101834.97;10257253;28;20051;-62
2023/01/22 23:34:55;;;;;;;12.40;5.70;;;;;;;4.50;72.75;101844.44;10251519;28;20398;-62
2023/01/22 23:39:57;;;;;;;9.35;5.25;;;;;;;4.46;72.82;101840.28;10256934;28;20058;-62
2023/01/22 23:44:58;;;;;;;9.27;4.13;;;;;;;4.49;72.82;101856.06;10260571;28;20078;-62
2023/01/22 23:50:00;;;;;;;9.25;4.47;;;;;;;4.48;72.94;101843.69;10252520;28;20039;-61
2023/01/22 23:55:01;;;;;;;7.57;4.00;;;;;;;4.55;72.50;101840.53;10254541;28;20047;-61
